Time;durP1;ratioP1;P1;durP2;ratioP2;P2;SDS_P1;SDS_P2;PMS_P1;PMS_P2;Temp;Humidity;BMP_temperature;BMP_pressure;BME280_temperature;BME280_humidity;BME280_pressure;Samples;Min_cycle;Max_cycle;Signal;HPM_P1;HPM_P2
2023/05/17 00:00:39;;;;;;;6.57;2.10;;;;;;;8.50;100.00;99600.00;4921716;29;20201;-77
2023/05/17 00:03:09;;;;;;;5.80;2.23;;;;;;;8.54;100.00;99601.56;4923366;29;20213;-77
2023/05/17 00:05:37;;;;;;;5.03;2.20;;;;;;;8.54;100.00;99593.63;4940832;29;20216;-77
2023/05/17 00:08:06;;;;;;;4.27;2.20;;;;;;;8.58;100.00;99592.53;4952232;29;20204;-77
2023/05/17 00:10:36;;;;;;;7.70;2.63;;;;;;;8.46;100.00;99601.06;4967419;28;20211;-77
2023/05/17 00:13:04;;;;;;;5.50;2.53;;;;;;;8.55;100.00;99608.53;4970219;28;20200;-77
2023/05/17 00:15:33;;;;;;;5.67;2.67;;;;;;;8.63;100.00;99605.53;4967481;28;20199;-77
2023/05/17 00:18:01;;;;;;;4.47;2.27;;;;;;;8.61;100.00;99607.41;4970669;28;20227;-77
2023/05/17 00:20:31;;;;;;;5.83;2.40;;;;;;;8.59;100.00;99610.13;4973570;28;20288;-77
2023/05/17 00:23:00;;;;;;;5.23;2.40;;;;;;;8.38;100.00;99605.84;4970922;28;20278;-77
2023/05/17 00:25:28;;;;;;;6.43;2.23;;;;;;;8.42;100.00;99601.31;4968828;28;20250;-77
2023/05/17 00:27:59;;;;;;;9.50;2.30;;;;;;;8.16;100.00;99618.31;4966920;28;20212;-77
2023/05/17 00:30:27;;;;;;;6.30;2.43;;;;;;;8.35;100.00;99615.72;4939977;28;20215;-77
2023/05/17 00:32:56;;;;;;;4.13;2.23;;;;;;;8.44;100.00;99618.75;4968070;28;20196;-77
2023/05/17 00:35:24;;;;;;;6.37;2.80;;;;;;;8.52;100.00;99613.13;4970560;28;20200;-77
2023/05/17 00:37:54;;;;;;;5.47;2.50;;;;;;;8.60;100.00;99617.09;4965711;28;20263;-77
2023/05/17 00:40:22;;;;;;;4.73;2.40;;;;;;;8.60;100.00;99624.19;4969117;28;20218;-77
2023/05/17 00:42:51;;;;;;;6.70;3.03;;;;;;;8.76;100.00;99622.47;4967025;28;20211;-78
2023/05/17 00:45:21;;;;;;;5.63;3.17;;;;;;;8.73;100.00;99629.72;4968295;28;20196;-78
2023/05/17 00:47:51;;;;;;;6.60;2.60;;;;;;;8.67;100.00;99622.94;4969727;28;20203;-77
2023/05/17 00:50:20;;;;;;;6.00;2.50;;;;;;;8.77;100.00;99620.69;4964581;28;20243;-78
2023/05/17 00:52:48;;;;;;;6.70;2.30;;;;;;;8.60;100.00;99625.03;4970618;28;20199;-78
2023/05/17 00:55:18;;;;;;;6.27;2.70;;;;;;;8.52;100.00;99623.69;4966239;28;20199;-77
2023/05/17 00:57:49;;;;;;;5.13;2.47;;;;;;;8.63;100.00;99623.16;4969938;28;20215;-77
2023/05/17 01:00:18;;;;;;;4.93;2.60;;;;;;;8.54;100.00;99625.31;4968026;28;20207;-78
2023/05/17 01:02:48;;;;;;;8.40;3.40;;;;;;;8.21;100.00;99626.91;4929916;29;20209;-78
2023/05/17 01:05:17;;;;;;;8.33;3.30;;;;;;;8.09;100.00;99633.56;4933900;28;20296;-77
2023/05/17 01:07:45;;;;;;;6.57;2.70;;;;;;;8.24;100.00;99627.59;4949052;28;20208;-78
2023/05/17 01:10:15;;;;;;;7.20;3.67;;;;;;;8.20;100.00;99622.53;4948337;29;20209;-77
2023/05/17 01:12:55;;;;;;;6.43;2.73;;;;;;;8.14;100.00;99630.75;4857325;29;20210;-77
2023/05/17 01:15:31;;;;;;;4.73;2.83;;;;;;;8.15;100.00;99632.44;4852257;29;20203;-77
2023/05/17 01:18:12;;;;;;;5.57;3.07;;;;;;;8.06;100.00;99635.50;4857040;29;20233;-77
2023/05/17 01:20:44;;;;;;;7.97;3.67;;;;;;;8.12;100.00;99632.59;4859486;29;20214;-78
2023/05/17 01:23:35;;;;;;;6.67;3.40;;;;;;;8.02;100.00;99635.66;4854807;29;20228;-78
2023/05/17 01:26:08;;;;;;;6.43;3.17;;;;;;;7.96;100.00;99638.56;4858004;29;20235;-78
2023/05/17 01:28:39;;;;;;;5.63;2.53;;;;;;;8.13;100.00;99640.44;4887739;29;20207;-78
2023/05/17 01:31:08;;;;;;;4.40;2.10;;;;;;;7.94;100.00;99637.78;4941431;28;20202;-77
2023/05/17 01:33:38;;;;;;;4.30;2.10;;;;;;;7.86;100.00;99637.28;4991406;28;20210;-77
2023/05/17 01:36:07;;;;;;;4.20;2.67;;;;;;;7.84;100.00;99646.19;4994361;28;20195;-77
2023/05/17 01:38:36;;;;;;;6.17;3.00;;;;;;;7.84;100.00;99644.41;4985566;28;20237;-77
2023/05/17 01:41:13;;;;;;;7.47;3.70;;;;;;;7.69;100.00;99656.47;4983808;28;20258;-77
2023/05/17 01:43:48;;;;;;;8.23;3.37;;;;;;;7.67;100.00;99653.06;4986083;28;20226;-78
2023/05/17 01:46:25;;;;;;;7.93;3.40;;;;;;;7.52;100.00;99655.50;4984315;28;20199;-78
2023/05/17 01:49:00;;;;;;;4.90;2.97;;;;;;;7.50;100.00;99658.22;4982405;28;20199;-77
2023/05/17 01:51:34;;;;;;;6.93;2.80;;;;;;;7.21;100.00;99658.59;4989294;28;20191;-77
2023/05/17 01:54:10;;;;;;;5.80;2.63;;;;;;;7.16;100.00;99662.28;4985084;28;20199;-78
2023/05/17 01:56:46;;;;;;;6.00;2.43;;;;;;;7.01;100.00;99664.69;4991661;28;20281;-77
2023/05/17 01:59:24;;;;;;;5.33;2.60;;;;;;;7.04;100.00;99660.16;4986954;28;20250;-78
2023/05/17 02:01:55;;;;;;;8.87;2.70;;;;;;;6.87;100.00;99652.97;4988194;28;20219;-77
2023/05/17 02:04:24;;;;;;;5.13;2.13;;;;;;;6.81;100.00;99665.50;4990781;28;20261;-78
2023/05/17 02:06:52;;;;;;;3.70;2.07;;;;;;;6.73;100.00;99667.59;4986335;28;20210;-77
2023/05/17 02:09:22;;;;;;;5.00;2.40;;;;;;;6.65;100.00;99667.91;4990982;28;20198;-77
2023/05/17 02:11:51;;;;;;;3.57;2.20;;;;;;;6.54;100.00;99664.84;4984339;28;20222;-78
2023/05/17 02:14:21;;;;;;;4.77;2.40;;;;;;;6.54;100.00;99668.31;4987799;28;20191;-78
2023/05/17 02:16:49;;;;;;;5.40;2.40;;;;;;;6.57;100.00;99667.38;4985228;28;20214;-78
2023/05/17 02:19:18;;;;;;;6.13;2.40;;;;;;;6.56;100.00;99673.53;4982552;28;20218;-77
2023/05/17 02:21:46;;;;;;;6.20;2.33;;;;;;;6.65;100.00;99667.91;4993377;28;20202;-77
2023/05/17 02:24:17;;;;;;;5.03;2.20;;;;;;;6.69;100.00;99663.38;4985218;28;20230;-77
2023/05/17 02:26:46;;;;;;;4.63;2.60;;;;;;;6.74;100.00;99666.69;4988485;28;20195;-77
2023/05/17 02:29:14;;;;;;;8.63;3.00;;;;;;;6.70;100.00;99659.84;4987491;28;20278;-77
2023/05/17 02:31:44;;;;;;;7.87;2.80;;;;;;;6.80;100.00;99669.06;4984007;28;20222;-77
2023/05/17 02:34:13;;;;;;;7.70;3.13;;;;;;;6.84;100.00;99670.66;4983240;28;20209;-76
2023/05/17 02:36:43;;;;;;;7.23;3.40;;;;;;;6.83;100.00;99659.25;4985769;28;20213;-77
2023/05/17 02:39:11;;;;;;;7.37;3.57;;;;;;;6.86;100.00;99667.06;4984839;28;20218;-77
2023/05/17 02:41:40;;;;;;;4.73;3.50;;;;;;;6.85;100.00;99659.19;4983183;28;20199;-77
2023/05/17 02:44:09;;;;;;;6.83;3.10;;;;;;;6.86;100.00;99663.56;4990509;28;20282;-77
2023/05/17 02:46:38;;;;;;;8.30;3.47;;;;;;;6.80;100.00;99662.03;4993005;28;20199;-77
2023/05/17 02:49:07;;;;;;;8.23;3.33;;;;;;;6.75;100.00;99657.84;4993220;28;20195;-77
2023/05/17 02:51:36;;;;;;;6.73;3.57;;;;;;;6.74;100.00;99664.03;4990473;28;20201;-77
2023/05/17 02:54:05;;;;;;;7.17;3.27;;;;;;;6.74;100.00;99662.25;4988741;28;20199;-77
2023/05/17 02:56:34;;;;;;;6.17;3.57;;;;;;;6.79;100.00;99654.19;4990606;28;20226;-77
2023/05/17 02:59:03;;;;;;;9.70;3.70;;;;;;;6.88;100.00;99657.31;4985530;28;20407;-77
2023/05/17 03:01:31;;;;;;;5.10;3.77;;;;;;;6.96;100.00;99653.53;4987208;28;20285;-77
2023/05/17 03:04:00;;;;;;;7.77;3.40;;;;;;;6.87;100.00;99666.13;4989259;28;20274;-77
2023/05/17 03:06:30;;;;;;;5.43;3.70;;;;;;;6.92;100.00;99672.97;4986194;28;20231;-77
2023/05/17 03:08:59;;;;;;;10.77;4.23;;;;;;;7.01;100.00;99662.91;4991559;28;20226;-77
2023/05/17 03:11:28;;;;;;;9.30;4.57;;;;;;;6.99;100.00;99661.28;4993563;28;20206;-77
2023/05/17 03:13:56;;;;;;;13.03;5.03;;;;;;;6.84;100.00;99673.28;4990803;28;20199;-77
2023/05/17 03:16:25;;;;;;;9.10;4.30;;;;;;;6.74;100.00;99677.19;4992729;28;20229;-77
2023/05/17 03:18:53;;;;;;;7.23;4.03;;;;;;;6.86;100.00;99682.84;4990859;28;20225;-77
2023/05/17 03:21:22;;;;;;;7.37;3.67;;;;;;;6.89;100.00;99687.13;4992357;28;20199;-77
2023/05/17 03:23:52;;;;;;;7.40;4.23;;;;;;;6.82;100.00;99686.50;4990408;28;20199;-77
2023/05/17 03:26:22;;;;;;;4.63;3.30;;;;;;;6.95;100.00;99688.63;4986963;28;20234;-77
2023/05/17 03:28:50;;;;;;;8.77;3.90;;;;;;;6.95;100.00;99689.53;4986634;28;20604;-77
2023/05/17 03:31:19;;;;;;;9.97;4.17;;;;;;;7.24;100.00;99695.34;4992695;28;20222;-77
2023/05/17 03:33:47;;;;;;;7.80;3.90;;;;;;;7.02;100.00;99706.78;4991304;28;20223;-77
2023/05/17 03:36:16;;;;;;;9.43;3.20;;;;;;;6.99;100.00;99701.63;4993714;28;20282;-77
2023/05/17 03:38:45;;;;;;;6.33;3.20;;;;;;;6.98;100.00;99701.72;4991100;28;20249;-77
2023/05/17 03:41:15;;;;;;;6.07;3.43;;;;;;;6.94;100.00;99708.84;4986763;28;20198;-77
2023/05/17 03:43:43;;;;;;;5.70;3.80;;;;;;;7.06;100.00;99707.53;4992572;28;20191;-77
2023/05/17 03:46:13;;;;;;;7.70;3.60;;;;;;;7.14;100.00;99716.84;4995263;28;20246;-77
2023/05/17 03:48:42;;;;;;;5.60;3.70;;;;;;;7.15;100.00;99707.16;4992111;28;20205;-77
2023/05/17 03:51:11;;;;;;;5.57;3.47;;;;;;;7.12;100.00;99710.75;4989372;28;20291;-77
2023/05/17 03:53:42;;;;;;;5.57;3.10;;;;;;;7.03;100.00;99710.25;4992355;28;20210;-77
2023/05/17 03:56:10;;;;;;;9.50;3.70;;;;;;;7.11;100.00;99706.41;4991270;28;20281;-77
2023/05/17 03:58:41;;;;;;;7.77;3.20;;;;;;;6.99;100.00;99704.28;4993077;28;20227;-77
2023/05/17 04:01:09;;;;;;;8.20;3.30;;;;;;;7.01;100.00;99707.69;4985166;28;20203;-77
2023/05/17 04:03:40;;;;;;;9.43;3.40;;;;;;;6.93;100.00;99711.56;4992866;28;20367;-76
2023/05/17 04:06:09;;;;;;;7.27;3.27;;;;;;;6.80;100.00;99712.06;4993055;28;20231;-77
2023/05/17 04:08:37;;;;;;;7.63;3.70;;;;;;;6.81;100.00;99708.50;4995968;28;20741;-77
2023/05/17 04:11:11;;;;;;;6.17;3.30;;;;;;;6.78;100.00;99710.41;4959739;28;20274;-76
2023/05/17 04:13:43;;;;;;;10.43;3.80;;;;;;;6.68;100.00;99712.53;4987461;28;20198;-77
2023/05/17 04:16:11;;;;;;;7.67;3.53;;;;;;;6.56;100.00;99713.00;4991962;28;20199;-76
2023/05/17 04:18:40;;;;;;;5.17;3.40;;;;;;;6.49;100.00;99711.53;4988861;28;20203;-77
2023/05/17 04:21:08;;;;;;;6.50;3.53;;;;;;;6.55;100.00;99719.19;4988565;28;20207;-76
2023/05/17 04:23:37;;;;;;;6.03;3.43;;;;;;;6.69;100.00;99718.66;4987104;28;20213;-77
2023/05/17 04:26:06;;;;;;;6.87;3.60;;;;;;;6.72;100.00;99724.66;4991631;28;20199;-76
2023/05/17 04:28:35;;;;;;;8.63;3.90;;;;;;;6.78;100.00;99727.06;4988308;28;20214;-77
2023/05/17 04:31:10;;;;;;;8.30;3.70;;;;;;;6.76;100.00;99728.03;4988472;28;20206;-77
2023/05/17 04:33:39;;;;;;;10.87;3.60;;;;;;;6.85;100.00;99725.00;4954478;29;20204;-77
2023/05/17 04:36:09;;;;;;;8.13;4.03;;;;;;;6.70;100.00;99726.50;4949706;29;20396;-77
2023/05/17 04:38:38;;;;;;;7.70;4.00;;;;;;;6.81;100.00;99724.28;4904714;29;20200;-77
2023/05/17 04:41:08;;;;;;;6.80;3.90;;;;;;;6.96;100.00;99724.63;4934938;29;20225;-77
2023/05/17 04:43:37;;;;;;;6.23;4.00;;;;;;;7.12;100.00;99737.09;4935276;29;20208;-77
2023/05/17 04:46:07;;;;;;;7.53;3.67;;;;;;;7.15;100.00;99744.03;4924423;29;20193;-77
2023/05/17 04:48:35;;;;;;;6.27;3.40;;;;;;;7.26;100.00;99743.59;4928544;29;20205;-76
2023/05/17 04:51:05;;;;;;;8.27;3.50;;;;;;;7.33;100.00;99753.78;4878356;29;20846;-77
2023/05/17 04:53:34;;;;;;;8.13;4.60;;;;;;;7.46;100.00;99752.38;4893910;29;20227;-77
2023/05/17 04:56:02;;;;;;;8.33;4.13;;;;;;;7.54;100.00;99761.75;4893929;29;20203;-77
2023/05/17 04:58:32;;;;;;;8.43;3.60;;;;;;;7.69;100.00;99761.94;4893665;29;20289;-77
2023/05/17 05:01:00;;;;;;;9.17;4.20;;;;;;;7.78;100.00;99751.94;4890855;29;20218;-77
2023/05/17 05:03:32;;;;;;;7.50;4.03;;;;;;;7.89;100.00;99761.09;4889236;29;20209;-77
2023/05/17 05:06:02;;;;;;;7.07;3.50;;;;;;;7.89;100.00;99768.13;4904106;29;20253;-78
2023/05/17 05:08:34;;;;;;;7.30;3.80;;;;;;;7.98;100.00;99773.03;4929313;28;20203;-77
2023/05/17 05:11:03;;;;;;;10.73;4.23;;;;;;;7.99;100.00;99770.31;4982477;28;20282;-77
2023/05/17 05:13:31;;;;;;;7.23;3.77;;;;;;;8.03;100.00;99778.97;4990872;28;20654;-77
2023/05/17 05:16:00;;;;;;;6.23;3.73;;;;;;;8.16;100.00;99774.00;4988216;28;20223;-77
2023/05/17 05:18:29;;;;;;;8.40;4.03;;;;;;;8.16;100.00;99772.22;4987788;28;20246;-77
2023/05/17 05:20:59;;;;;;;7.63;3.97;;;;;;;8.25;100.00;99763.03;4989412;28;20226;-77
2023/05/17 05:23:27;;;;;;;6.27;3.37;;;;;;;8.42;100.00;99771.09;4989374;28;20231;-77
2023/05/17 05:25:56;;;;;;;6.83;3.50;;;;;;;8.46;100.00;99782.34;4984256;28;20218;-77
2023/05/17 05:28:24;;;;;;;7.27;3.53;;;;;;;8.54;100.00;99782.88;4983283;28;20250;-77
2023/05/17 05:30:58;;;;;;;7.63;3.80;;;;;;;8.66;100.00;99782.31;4983599;28;20199;-77
2023/05/17 05:33:27;;;;;;;6.63;3.73;;;;;;;8.79;100.00;99787.91;4986468;28;20203;-77
2023/05/17 05:35:55;;;;;;;7.17;3.70;;;;;;;9.06;100.00;99789.22;4989349;28;20197;-78
2023/05/17 05:38:26;;;;;;;9.00;4.10;;;;;;;9.05;100.00;99784.00;4986506;28;20225;-77
2023/05/17 05:40:54;;;;;;;8.30;3.87;;;;;;;9.05;100.00;99782.22;4987249;28;20343;-78
2023/05/17 05:43:23;;;;;;;5.50;4.20;;;;;;;8.79;100.00;99788.75;4985249;28;20229;-77
2023/05/17 05:45:52;;;;;;;5.33;3.57;;;;;;;8.98;100.00;99780.81;4985048;28;20202;-77
2023/05/17 05:48:20;;;;;;;7.60;3.53;;;;;;;9.15;100.00;99785.28;4991302;28;20222;-77
2023/05/17 05:50:49;;;;;;;5.83;3.30;;;;;;;9.21;100.00;99786.78;4985662;28;20265;-77
2023/05/17 05:53:17;;;;;;;5.23;3.40;;;;;;;9.29;100.00;99782.84;4988758;28;20209;-77
2023/05/17 05:55:50;;;;;;;6.67;3.90;;;;;;;9.42;100.00;99791.88;4988888;28;20202;-77
2023/05/17 05:58:18;;;;;;;7.97;3.57;;;;;;;9.41;100.00;99790.16;4989354;28;20669;-77
2023/05/17 06:00:46;;;;;;;6.60;3.73;;;;;;;9.53;100.00;99793.13;4984609;28;20219;-78
2023/05/17 06:03:16;;;;;;;7.33;3.90;;;;;;;9.52;100.00;99802.00;4989337;28;20206;-77
2023/05/17 06:05:45;;;;;;;5.67;3.63;;;;;;;9.68;100.00;99798.53;4986667;28;20647;-77
2023/05/17 06:08:13;;;;;;;8.33;4.00;;;;;;;9.76;100.00;99800.78;4985926;28;20195;-77
2023/05/17 06:10:42;;;;;;;8.87;4.20;;;;;;;9.97;100.00;99797.03;4984170;28;20257;-77
2023/05/17 06:13:12;;;;;;;7.13;3.40;;;;;;;9.84;100.00;99795.94;4988508;28;20278;-77
2023/05/17 06:15:41;;;;;;;8.43;3.80;;;;;;;9.93;100.00;99808.69;4986325;28;20209;-77
2023/05/17 06:18:10;;;;;;;8.07;4.00;;;;;;;10.12;100.00;99808.63;4979179;28;20221;-78
2023/05/17 06:20:39;;;;;;;8.00;3.80;;;;;;;10.25;100.00;99817.69;4984346;28;20301;-77
2023/05/17 06:23:07;;;;;;;6.23;3.57;;;;;;;10.46;100.00;99823.66;4986181;28;20201;-77
2023/05/17 06:25:36;;;;;;;9.57;4.23;;;;;;;10.44;100.00;99822.88;4987883;28;20226;-78
2023/05/17 06:28:04;;;;;;;6.17;3.73;;;;;;;10.28;100.00;99827.25;4990983;28;20209;-77
2023/05/17 06:30:37;;;;;;;9.27;3.57;;;;;;;10.20;100.00;99821.47;4983536;28;20202;-77
2023/05/17 06:33:06;;;;;;;8.87;3.77;;;;;;;10.35;100.00;99827.81;4940834;28;20195;-77
2023/05/17 06:35:37;;;;;;;8.87;3.70;;;;;;;10.31;100.00;99822.66;4981960;28;20253;-77
2023/05/17 06:38:23;;;;;;;7.83;3.50;;;;;;;10.28;100.00;99833.41;4993297;28;20235;-78
2023/05/17 06:40:52;;;;;;;8.37;3.60;;;;;;;10.38;100.00;99828.50;4986287;28;20245;-77
2023/05/17 06:43:21;;;;;;;8.47;3.40;;;;;;;10.29;100.00;99836.91;4989861;28;20203;-77
2023/05/17 06:45:51;;;;;;;9.17;3.53;;;;;;;10.31;100.00;99837.69;4987423;28;20210;-77
2023/05/17 06:48:19;;;;;;;9.37;3.40;;;;;;;10.52;100.00;99836.56;4980704;28;20206;-77
2023/05/17 06:50:48;;;;;;;7.47;3.50;;;;;;;10.77;100.00;99844.06;4987854;28;20226;-78
2023/05/17 06:53:16;;;;;;;10.83;3.33;;;;;;;10.98;100.00;99838.53;4987790;28;20646;-77
2023/05/17 06:55:45;;;;;;;11.63;3.60;;;;;;;10.91;100.00;99839.81;4985547;28;20213;-77
2023/05/17 06:58:13;;;;;;;11.37;3.53;;;;;;;11.05;100.00;99835.47;4987289;28;20195;-78
2023/05/17 07:00:41;;;;;;;9.77;3.50;;;;;;;11.24;100.00;99831.78;4982833;28;20230;-78
2023/05/17 07:03:11;;;;;;;8.83;4.00;;;;;;;11.25;100.00;99839.66;4989116;28;20226;-77
2023/05/17 07:05:40;;;;;;;7.67;4.00;;;;;;;11.44;100.00;99840.34;4987866;28;20223;-78
2023/05/17 07:08:08;;;;;;;11.50;3.40;;;;;;;11.72;100.00;99830.81;4988096;28;20203;-78
2023/05/17 07:10:40;;;;;;;12.93;4.10;;;;;;;11.93;100.00;99829.56;4981212;28;20250;-78
2023/05/17 07:13:08;;;;;;;9.77;3.67;;;;;;;11.99;100.00;99829.22;4983410;28;20199;-78
2023/05/17 07:15:37;;;;;;;12.07;3.40;;;;;;;11.66;100.00;99828.50;4984561;28;20211;-77
2023/05/17 07:18:06;;;;;;;10.03;3.40;;;;;;;11.76;100.00;99829.66;4982376;28;20278;-78
2023/05/17 07:20:36;;;;;;;10.00;3.60;;;;;;;11.34;100.00;99833.84;4980516;28;20239;-77
2023/05/17 07:23:04;;;;;;;8.00;3.33;;;;;;;11.42;100.00;99839.56;4987003;28;20203;-78
2023/05/17 07:25:33;;;;;;;8.43;3.23;;;;;;;11.36;100.00;99839.91;4987820;28;20218;-77
2023/05/17 07:28:01;;;;;;;8.63;3.37;;;;;;;11.13;100.00;99846.50;4987236;28;20209;-78
2023/05/17 07:30:30;;;;;;;9.37;4.00;;;;;;;11.18;100.00;99851.53;4988904;28;20200;-77
2023/05/17 07:32:58;;;;;;;8.80;3.53;;;;;;;11.18;100.00;99856.84;4987825;28;20199;-77
2023/05/17 07:35:27;;;;;;;10.37;3.43;;;;;;;11.13;100.00;99853.59;4983288;28;20210;-77
2023/05/17 07:37:57;;;;;;;9.10;3.30;;;;;;;11.26;100.00;99851.97;4989958;28;20432;-77
2023/05/17 07:40:26;;;;;;;9.67;3.83;;;;;;;11.24;100.00;99858.31;4985828;28;20206;-77
2023/05/17 07:42:54;;;;;;;10.57;3.90;;;;;;;11.24;100.00;99853.88;4983970;28;20191;-77
2023/05/17 07:45:24;;;;;;;11.37;3.53;;;;;;;11.32;100.00;99854.28;4983582;28;20195;-78
2023/05/17 07:47:52;;;;;;;8.93;3.03;;;;;;;11.52;100.00;99860.28;4989509;28;20199;-78
2023/05/17 07:50:20;;;;;;;7.83;3.47;;;;;;;11.40;100.00;99853.88;4996546;28;20249;-78
2023/05/17 07:52:49;;;;;;;11.00;3.53;;;;;;;11.60;100.00;99858.06;4989287;28;20195;-77
2023/05/17 07:55:20;;;;;;;10.37;2.93;;;;;;;11.65;100.00;99856.81;4990839;28;20225;-77
2023/05/17 07:57:51;;;;;;;8.83;3.43;;;;;;;11.61;100.00;99863.25;4989603;28;20203;-78
2023/05/17 08:00:21;;;;;;;11.60;3.67;;;;;;;11.68;100.00;99856.66;4990932;28;20654;-77
2023/05/17 08:02:49;;;;;;;11.27;2.90;;;;;;;11.81;100.00;99856.00;4992954;28;20301;-78
2023/05/17 08:05:21;;;;;;;9.43;2.87;;;;;;;11.95;100.00;99856.03;4989420;28;20223;-77
2023/05/17 08:07:51;;;;;;;6.33;3.10;;;;;;;12.27;100.00;99839.06;4993331;28;20223;-77
2023/05/17 08:10:49;;;;;;;12.50;3.30;;;;;;;12.57;100.00;99854.94;4988571;28;20198;-78
2023/05/17 08:13:34;;;;;;;8.80;3.30;;;;;;;12.77;100.00;99856.38;4994487;28;20203;-78
2023/05/17 08:16:06;;;;;;;9.03;2.77;;;;;;;12.63;100.00;99858.16;4990045;28;20694;-77
2023/05/17 08:18:42;;;;;;;9.10;2.37;;;;;;;12.54;100.00;99851.59;4992910;28;20203;-77
2023/05/17 08:21:13;;;;;;;7.30;2.73;;;;;;;12.73;100.00;99852.19;4990578;28;20222;-78
2023/05/17 08:23:42;;;;;;;6.33;2.73;;;;;;;12.85;100.00;99853.25;4988783;28;20498;-78
2023/05/17 08:26:11;;;;;;;7.37;2.90;;;;;;;12.84;100.00;99840.91;4987009;28;20218;-78
2023/05/17 08:28:41;;;;;;;6.20;2.67;;;;;;;13.00;100.00;99848.75;4989042;28;20207;-78
2023/05/17 08:31:11;;;;;;;4.90;2.30;;;;;;;12.48;100.00;99855.50;4985875;28;20199;-78
2023/05/17 08:33:39;;;;;;;9.27;2.37;;;;;;;12.63;100.00;99856.34;4990233;28;20203;-77
2023/05/17 08:36:08;;;;;;;7.40;2.23;;;;;;;12.50;100.00;99858.06;4989508;28;20213;-78
2023/05/17 08:38:36;;;;;;;7.83;2.33;;;;;;;12.55;100.00;99853.34;4986149;28;20201;-78
2023/05/17 08:41:05;;;;;;;6.27;2.23;;;;;;;12.26;100.00;99850.63;4995271;28;20199;-77
2023/05/17 08:43:34;;;;;;;5.17;2.03;;;;;;;12.41;100.00;99853.31;4992416;28;20207;-78
2023/05/17 08:46:04;;;;;;;7.53;2.30;;;;;;;12.42;100.00;99853.22;4987648;28;20203;-77
2023/05/17 08:48:40;;;;;;;3.87;2.30;;;;;;;12.40;100.00;99852.44;4992771;28;20253;-78
2023/05/17 08:51:10;;;;;;;5.93;2.60;;;;;;;12.55;100.00;99861.31;4991741;28;20199;-78
2023/05/17 08:53:38;;;;;;;7.87;2.50;;;;;;;12.57;100.00;99851.44;4986262;28;20199;-78
2023/05/17 08:56:08;;;;;;;7.57;2.27;;;;;;;12.33;100.00;99853.75;4988324;28;20253;-78
2023/05/17 08:58:43;;;;;;;7.50;2.13;;;;;;;12.59;100.00;99857.50;4986061;28;20203;-78
2023/05/17 09:01:27;;;;;;;4.83;1.70;;;;;;;12.88;100.00;99853.06;4992470;28;20274;-77
2023/05/17 09:04:00;;;;;;;6.80;2.60;;;;;;;12.98;100.00;99851.53;4988279;28;20211;-78
2023/05/17 09:06:32;;;;;;;5.80;1.90;;;;;;;12.94;98.44;99862.47;4989600;28;20273;-78
2023/05/17 09:09:01;;;;;;;8.90;1.90;;;;;;;13.31;99.49;99848.53;4992102;28;20206;-77
2023/05/17 09:11:31;;;;;;;4.70;1.90;;;;;;;13.38;91.05;99847.22;4987435;28;20195;-77
2023/05/17 09:14:00;;;;;;;5.87;2.20;;;;;;;13.26;89.50;99848.00;4987752;28;20716;-77
2023/05/17 09:16:32;;;;;;;5.87;1.87;;;;;;;12.90;91.73;99856.47;4987530;28;20278;-77
2023/05/17 09:19:01;;;;;;;4.60;1.93;;;;;;;12.83;90.68;99853.31;4983371;28;20557;-78
2023/05/17 09:21:31;;;;;;;5.80;1.93;;;;;;;12.78;86.94;99858.09;4989550;28;20187;-77
2023/05/17 09:24:00;;;;;;;7.80;1.70;;;;;;;12.67;84.80;99857.91;4991769;28;20195;-78
2023/05/17 09:26:39;;;;;;;4.10;1.93;;;;;;;12.40;89.56;99855.09;4992788;28;20199;-77
2023/05/17 09:29:11;;;;;;;6.07;1.90;;;;;;;12.34;93.05;99860.78;4987871;28;20195;-78
2023/05/17 09:31:42;;;;;;;8.33;2.33;;;;;;;12.84;88.03;99863.03;4984254;28;20282;-78
2023/05/17 09:34:19;;;;;;;5.57;2.10;;;;;;;13.42;82.77;99862.03;4989303;28;20677;-77
2023/05/17 09:36:47;;;;;;;9.77;2.10;;;;;;;13.72;82.45;99855.69;4991880;28;20241;-77
2023/05/17 09:39:16;;;;;;;6.10;2.03;;;;;;;14.02;80.60;99860.78;4984680;28;20191;-78
2023/05/17 09:41:45;;;;;;;5.57;1.90;;;;;;;14.66;79.26;99861.72;4980940;28;20203;-77
2023/05/17 09:44:16;;;;;;;4.97;2.00;;;;;;;14.16;73.64;99865.16;4981715;28;20250;-78
2023/05/17 09:46:48;;;;;;;5.57;2.00;;;;;;;14.17;69.89;99867.72;4989688;28;20191;-78
2023/05/17 09:49:17;;;;;;;5.87;2.10;;;;;;;14.66;66.47;99860.88;4988163;28;20210;-78
2023/05/17 09:51:48;;;;;;;5.53;1.93;;;;;;;14.88;61.71;99864.63;4994787;28;20195;-78
2023/05/17 09:54:18;;;;;;;7.60;2.30;;;;;;;14.74;66.41;99864.72;4992827;28;20242;-77
2023/05/17 09:56:54;;;;;;;11.10;2.27;;;;;;;13.87;74.30;99865.28;4986896;28;20207;-77
2023/05/17 09:59:27;;;;;;;6.67;2.33;;;;;;;13.52;74.49;99862.31;4987482;28;20206;-77
2023/05/17 10:01:58;;;;;;;9.90;2.60;;;;;;;14.31;76.39;99857.00;4986178;28;20213;-78
2023/05/17 10:04:30;;;;;;;8.37;1.90;;;;;;;14.74;68.02;99877.19;4985579;28;20221;-78
2023/05/17 10:07:00;;;;;;;6.67;2.00;;;;;;;14.64;65.15;99871.66;4991179;28;20222;-78
2023/05/17 10:09:35;;;;;;;6.57;2.40;;;;;;;15.11;63.17;99864.78;4988063;28;20203;-77
2023/05/17 10:12:06;;;;;;;4.83;2.10;;;;;;;15.32;60.58;99865.06;4982167;28;20217;-77
2023/05/17 10:14:37;;;;;;;8.13;2.50;;;;;;;15.33;59.36;99856.09;4932632;29;20228;-77
2023/05/17 10:17:08;;;;;;;5.03;2.20;;;;;;;15.19;62.44;99862.44;4929944;29;20205;-78
2023/05/17 10:19:37;;;;;;;6.20;2.20;;;;;;;14.85;64.45;99864.81;4932402;29;20209;-77
2023/05/17 10:22:06;;;;;;;5.70;2.33;;;;;;;14.64;65.58;99857.47;4930813;29;20205;-77
2023/05/17 10:24:50;;;;;;;8.00;2.20;;;;;;;14.81;65.33;99863.34;4875640;29;20455;-78
2023/05/17 10:27:19;;;;;;;7.23;2.30;;;;;;;15.35;63.77;99852.38;4869040;29;20675;-78
2023/05/17 10:29:47;;;;;;;10.17;2.57;;;;;;;15.73;67.76;99854.94;4868578;29;20254;-77
2023/05/17 10:32:21;;;;;;;7.43;2.13;;;;;;;16.00;62.79;99860.00;4861907;29;20197;-78
2023/05/17 10:34:51;;;;;;;5.00;1.97;;;;;;;16.29;59.00;99849.78;4931450;29;20293;-78
2023/05/17 10:37:39;;;;;;;9.53;2.63;;;;;;;16.75;58.28;99850.75;4933274;29;20225;-78
2023/05/17 10:40:12;;;;;;;6.20;2.70;;;;;;;16.59;58.90;99846.56;4926954;29;20201;-78
2023/05/17 10:42:45;;;;;;;5.93;2.50;;;;;;;15.82;58.89;99861.38;4951847;28;20309;-78
2023/05/17 10:45:14;;;;;;;10.57;2.40;;;;;;;16.03;58.94;99862.47;4981476;28;20382;-77
2023/05/17 10:47:44;;;;;;;7.17;2.20;;;;;;;16.28;55.49;99863.25;4988029;28;20210;-78
2023/05/17 10:50:14;;;;;;;8.10;2.33;;;;;;;16.61;55.74;99859.84;4990361;28;20202;-78
2023/05/17 10:52:47;;;;;;;9.03;2.63;;;;;;;17.22;55.39;99855.00;4985406;28;20294;-78
2023/05/17 10:55:19;;;;;;;7.80;2.20;;;;;;;17.42;51.23;99858.75;4990516;28;20741;-78
2023/05/17 10:58:19;;;;;;;7.13;2.37;;;;;;;17.68;51.29;99844.09;4988144;28;20214;-78
2023/05/17 11:00:49;;;;;;;7.33;2.10;;;;;;;17.38;50.69;99843.94;4991768;28;20416;-78
2023/05/17 11:03:21;;;;;;;6.17;2.10;;;;;;;17.08;52.13;99849.91;4989596;28;20356;-78
2023/05/17 11:06:13;;;;;;;6.80;2.40;;;;;;;17.59;51.28;99847.53;4993069;28;20328;-78
2023/05/17 11:09:08;;;;;;;6.70;2.30;;;;;;;17.46;51.57;99842.28;4990342;28;20202;-78
2023/05/17 11:11:37;;;;;;;7.37;2.30;;;;;;;18.20;50.85;99833.53;4987048;28;20222;-78
2023/05/17 11:14:07;;;;;;;8.13;2.30;;;;;;;18.36;51.12;99836.63;4986613;28;20235;-78
2023/05/17 11:16:36;;;;;;;6.37;2.03;;;;;;;17.70;50.17;99841.31;4986165;28;20210;-78
2023/05/17 11:19:10;;;;;;;6.67;2.30;;;;;;;17.93;47.46;99834.03;4990264;28;20200;-78
2023/05/17 11:21:46;;;;;;;6.13;2.17;;;;;;;18.36;47.61;99838.47;4992935;28;20221;-78
2023/05/17 11:24:25;;;;;;;7.73;2.10;;;;;;;18.37;47.35;99824.06;4988361;28;20230;-78
2023/05/17 11:26:55;;;;;;;7.73;2.60;;;;;;;18.38;47.98;99839.19;4990488;28;20207;-78
2023/05/17 11:29:29;;;;;;;7.10;2.37;;;;;;;18.31;47.34;99834.31;4986497;28;20221;-78
2023/05/17 11:31:58;;;;;;;7.97;2.20;;;;;;;18.38;45.94;99828.44;4994167;28;20298;-78
2023/05/17 11:34:29;;;;;;;6.50;2.40;;;;;;;18.38;46.23;99840.03;4993841;28;20195;-78
2023/05/17 11:36:59;;;;;;;7.63;2.37;;;;;;;18.27;47.56;99838.25;4989590;28;20696;-78
2023/05/17 11:39:27;;;;;;;6.27;2.43;;;;;;;18.29;47.29;99843.50;4987835;28;20203;-78
2023/05/17 11:41:57;;;;;;;5.60;2.10;;;;;;;18.10;48.09;99843.34;4989863;28;20203;-78
2023/05/17 11:44:30;;;;;;;7.20;2.30;;;;;;;17.65;46.32;99838.97;4991573;28;20223;-78
2023/05/17 11:47:03;;;;;;;9.03;2.13;;;;;;;19.03;47.38;99844.22;4993528;28;20207;-78